CheckWX is a tool to help pilots better visualize weather data.  It is not intended as a substitute for an official pre-flight weather briefing.

16:48:33 UTC

EFKK METAR
Kruunupyy Airport
Kokkola / Kruunupyy, Finland
Current

29 mins ago

EFKK 201620Z AUTO 14013KT CAVOK M02/M08 Q1005
Observed
Feb-20 @ 16:20 UTC
Wind
  • 140° at 13 KTS
Visibility
10,000+ meters
Flight Rules
VFR
Cloud Levels
  • Clear skies
Temperature
-2°C / 28°F
Dewpoint
-8°C / 18°F
Humidity
64%
Altimeter
29.68" Hg
Pressure
1004.92 hPa
Previous

59 mins ago

EFKK 201550Z AUTO 14011KT CAVOK M03/M08 Q1005
Observed
Feb-20 @ 15:50 UTC
Wind
  • 140° at 11 KTS
Visibility
10,000+ meters
Flight Rules
VFR
Cloud Levels
  • Clear skies
Temperature
-3°C / 27°F
Dewpoint
-8°C / 18°F
Humidity
69%
Altimeter
29.68" Hg
Pressure
1004.92 hPa
Previous

1 hour ago

EFKK 201520Z AUTO 14010KT CAVOK M03/M09 Q1006
Observed
Feb-20 @ 15:20 UTC
Wind
  • 140° at 10 KTS
Visibility
10,000+ meters
Flight Rules
VFR
Cloud Levels
  • Clear skies
Temperature
-3°C / 27°F
Dewpoint
-9°C / 16°F
Humidity
64%
Altimeter
29.7" Hg
Pressure
1005.92 hPa